Helena Regional Airport
KHLN : now visible

Airfield :











YOU CAN JOIN US ON...

 
LOGIN :

Register | Disclaimer

   EN    FR    IT 

 









Legend :    VFR   Marginal VFR   IFR   Intensive IFR   Very Intensive IFR
Visi :
Ceiling :
>= 8 km
>= 3000ft
5 to 8 km
1000 to 3000 ft
1500m to 5 km
500 to 1000 ft
800 to 1500m
200 to 500 ft
< 800m
< 200 ft
Symbols :   Thunderstorms  Fog  Heavy snow  Heavy precipitations  Wind > 20 kt






- Airport Elevation : 3877 ft
- IATA code : HLN


KHLN - Helena Regional

CURRENT METAR :
  • 112153Z AUTO 08005KT 10SM CLR 31/03 A2982 RMK AO2 SLP073 T03110033

EXPIRED METARs :
  • 112053Z 08005KT 10SM CLR 31/03 A2984 RMK AO2 SLP084 T03060033 58021
  • 111953Z VRB04KT 10SM CLR 30/04 A2987 RMK AO2 SLP090 T03000039

TAF KHLN
Valid from the 11 at 18:00 until the 12 at 18:00 UTC


111720Z 1118/1218 27007KT P6SM SKC
FM112100 26013G23KT P6SM FEW100
FM120300 VRB06KT P6SM SKC
FM121700 28011G21KT P6SM SCT120 BKN200
KZLC FIR / North America



MET'MAP, your aeronautical weather chart ! - Copyright ORBIFLY December 2007 - Disclaimer

ORBIFLY MET'MAP TEAM :

Programming & Development : Alexandra Zaïnal
Concept & original design : Baudouin d'Aumeries
Assistance for programming : Marc-Olivier Méhu
Technical & hardware support : Manuel Goepfert

Contact : metmap@orbifly.com




SOURCES & CREDITS :

   NOAA       Earth
Advisory